sensor_id;sensor_type;location;lat;lon;timestamp;P1;durP1;ratioP1;P2;durP2;ratioP2
51332;SDS011;37417;48.118;11.734;2022-07-10T00:01:23;2.13;;;1.92;;
51332;SDS011;37417;48.118;11.734;2022-07-10T00:04:08;3.40;;;1.38;;
51332;SDS011;37417;48.118;11.734;2022-07-10T00:06:54;2.75;;;1.70;;
51332;SDS011;37417;48.118;11.734;2022-07-10T00:09:41;1.95;;;1.75;;
51332;SDS011;37417;48.118;11.734;2022-07-10T00:12:26;2.13;;;1.48;;
51332;SDS011;37417;48.118;11.734;2022-07-10T00:15:12;2.63;;;2.00;;
51332;SDS011;37417;48.118;11.734;2022-07-10T00:17:58;2.58;;;2.20;;
51332;SDS011;37417;48.118;11.734;2022-07-10T00:20:44;4.85;;;1.75;;
51332;SDS011;37417;48.118;11.734;2022-07-10T00:23:30;2.90;;;1.85;;
51332;SDS011;37417;48.118;11.734;2022-07-10T00:26:15;3.67;;;1.60;;
51332;SDS011;37417;48.118;11.734;2022-07-10T00:29:01;2.58;;;1.75;;
51332;SDS011;37417;48.118;11.734;2022-07-10T00:31:46;3.83;;;2.00;;
51332;SDS011;37417;48.118;11.734;2022-07-10T00:34:32;3.08;;;2.03;;
51332;SDS011;37417;48.118;11.734;2022-07-10T00:37:18;4.28;;;2.33;;
51332;SDS011;37417;48.118;11.734;2022-07-10T00:40:06;2.95;;;2.20;;
51332;SDS011;37417;48.118;11.734;2022-07-10T00:42:52;2.72;;;2.28;;
51332;SDS011;37417;48.118;11.734;2022-07-10T00:45:38;3.08;;;2.78;;
51332;SDS011;37417;48.118;11.734;2022-07-10T00:48:23;3.17;;;2.55;;
51332;SDS011;37417;48.118;11.734;2022-07-10T00:51:09;4.00;;;2.78;;
51332;SDS011;37417;48.118;11.734;2022-07-10T00:53:55;3.83;;;2.85;;
51332;SDS011;37417;48.118;11.734;2022-07-10T00:56:42;7.32;;;2.97;;
51332;SDS011;37417;48.118;11.734;2022-07-10T00:59:27;4.97;;;3.42;;
51332;SDS011;37417;48.118;11.734;2022-07-10T01:02:13;3.60;;;3.13;;
51332;SDS011;37417;48.118;11.734;2022-07-10T01:05:00;3.70;;;3.40;;
51332;SDS011;37417;48.118;11.734;2022-07-10T01:07:45;3.83;;;3.50;;
51332;SDS011;37417;48.118;11.734;2022-07-10T01:10:31;3.83;;;3.42;;
51332;SDS011;37417;48.118;11.734;2022-07-10T01:13:17;4.50;;;3.42;;
51332;SDS011;37417;48.118;11.734;2022-07-10T01:16:03;3.90;;;3.35;;
51332;SDS011;37417;48.118;11.734;2022-07-10T01:18:48;6.28;;;3.00;;
51332;SDS011;37417;48.118;11.734;2022-07-10T01:21:35;3.95;;;3.00;;
51332;SDS011;37417;48.118;11.734;2022-07-10T01:24:22;6.63;;;3.20;;
51332;SDS011;37417;48.118;11.734;2022-07-10T01:27:07;3.70;;;2.60;;
51332;SDS011;37417;48.118;11.734;2022-07-10T01:29:53;3.85;;;3.20;;
51332;SDS011;37417;48.118;11.734;2022-07-10T01:32:39;5.78;;;3.38;;
51332;SDS011;37417;48.118;11.734;2022-07-10T01:35:25;5.70;;;2.92;;
51332;SDS011;37417;48.118;11.734;2022-07-10T01:38:11;4.55;;;2.65;;
51332;SDS011;37417;48.118;11.734;2022-07-10T01:40:56;5.28;;;3.35;;
51332;SDS011;37417;48.118;11.734;2022-07-10T01:43:42;4.07;;;3.25;;
51332;SDS011;37417;48.118;11.734;2022-07-10T01:46:30;5.32;;;3.10;;
51332;SDS011;37417;48.118;11.734;2022-07-10T01:49:17;4.32;;;3.05;;
51332;SDS011;37417;48.118;11.734;2022-07-10T01:52:03;3.80;;;3.45;;
51332;SDS011;37417;48.118;11.734;2022-07-10T01:54:49;5.05;;;3.90;;
51332;SDS011;37417;48.118;11.734;2022-07-10T01:57:35;10.02;;;3.70;;
51332;SDS011;37417;48.118;11.734;2022-07-10T02:00:20;4.40;;;3.97;;
51332;SDS011;37417;48.118;11.734;2022-07-10T02:03:06;4.57;;;3.78;;
51332;SDS011;37417;48.118;11.734;2022-07-10T02:06:11;8.07;;;4.03;;
51332;SDS011;37417;48.118;11.734;2022-07-10T02:08:56;4.13;;;3.60;;
51332;SDS011;37417;48.118;11.734;2022-07-10T02:11:42;6.70;;;4.50;;
51332;SDS011;37417;48.118;11.734;2022-07-10T02:14:28;4.70;;;3.75;;
51332;SDS011;37417;48.118;11.734;2022-07-10T02:17:13;4.82;;;3.92;;
51332;SDS011;37417;48.118;11.734;2022-07-10T02:20:01;5.50;;;4.15;;
51332;SDS011;37417;48.118;11.734;2022-07-10T02:22:47;5.57;;;4.20;;
51332;SDS011;37417;48.118;11.734;2022-07-10T02:25:33;5.00;;;4.15;;
51332;SDS011;37417;48.118;11.734;2022-07-10T02:28:19;6.10;;;4.55;;
51332;SDS011;37417;48.118;11.734;2022-07-10T02:31:04;4.72;;;3.72;;
51332;SDS011;37417;48.118;11.734;2022-07-10T02:33:50;6.25;;;4.15;;
51332;SDS011;37417;48.118;11.734;2022-07-10T02:36:36;5.55;;;4.50;;
51332;SDS011;37417;48.118;11.734;2022-07-10T02:39:23;4.25;;;3.85;;
51332;SDS011;37417;48.118;11.734;2022-07-10T02:42:09;5.20;;;3.78;;
51332;SDS011;37417;48.118;11.734;2022-07-10T02:44:55;4.28;;;3.88;;
51332;SDS011;37417;48.118;11.734;2022-07-10T02:47:40;5.65;;;4.13;;
51332;SDS011;37417;48.118;11.734;2022-07-10T02:50:26;5.13;;;4.00;;
51332;SDS011;37417;48.118;11.734;2022-07-10T02:53:12;4.72;;;3.75;;
51332;SDS011;37417;48.118;11.734;2022-07-10T02:55:57;6.07;;;4.20;;
51332;SDS011;37417;48.118;11.734;2022-07-10T02:58:43;4.30;;;3.88;;
51332;SDS011;37417;48.118;11.734;2022-07-10T03:01:29;6.47;;;4.15;;
51332;SDS011;37417;48.118;11.734;2022-07-10T03:04:14;6.28;;;4.95;;
51332;SDS011;37417;48.118;11.734;2022-07-10T03:07:00;5.10;;;4.45;;
51332;SDS011;37417;48.118;11.734;2022-07-10T03:09:46;5.28;;;4.78;;
51332;SDS011;37417;48.118;11.734;2022-07-10T03:12:32;4.90;;;4.40;;
51332;SDS011;37417;48.118;11.734;2022-07-10T03:15:17;6.93;;;4.68;;
51332;SDS011;37417;48.118;11.734;2022-07-10T03:18:03;7.45;;;4.22;;
51332;SDS011;37417;48.118;11.734;2022-07-10T03:20:49;4.90;;;4.38;;
51332;SDS011;37417;48.118;11.734;2022-07-10T03:23:34;5.35;;;4.45;;
51332;SDS011;37417;48.118;11.734;2022-07-10T03:26:20;6.00;;;4.53;;
51332;SDS011;37417;48.118;11.734;2022-07-10T03:29:06;4.10;;;3.70;;
51332;SDS011;37417;48.118;11.734;2022-07-10T03:31:51;5.82;;;4.97;;
51332;SDS011;37417;48.118;11.734;2022-07-10T03:34:37;4.07;;;3.75;;
51332;SDS011;37417;48.118;11.734;2022-07-10T03:37:22;4.60;;;3.88;;
51332;SDS011;37417;48.118;11.734;2022-07-10T03:40:08;4.40;;;4.00;;
51332;SDS011;37417;48.118;11.734;2022-07-10T03:42:54;5.00;;;4.53;;
51332;SDS011;37417;48.118;11.734;2022-07-10T03:45:40;7.22;;;5.20;;
51332;SDS011;37417;48.118;11.734;2022-07-10T03:48:26;4.43;;;4.03;;
51332;SDS011;37417;48.118;11.734;2022-07-10T03:51:12;4.47;;;4.07;;
51332;SDS011;37417;48.118;11.734;2022-07-10T03:53:57;5.13;;;4.55;;
51332;SDS011;37417;48.118;11.734;2022-07-10T03:56:43;7.13;;;4.60;;
51332;SDS011;37417;48.118;11.734;2022-07-10T03:59:47;5.30;;;4.80;;
51332;SDS011;37417;48.118;11.734;2022-07-10T04:02:33;4.50;;;4.07;;
51332;SDS011;37417;48.118;11.734;2022-07-10T04:05:19;5.32;;;4.80;;
51332;SDS011;37417;48.118;11.734;2022-07-10T04:08:05;5.13;;;4.53;;
51332;SDS011;37417;48.118;11.734;2022-07-10T04:10:51;5.30;;;4.75;;
51332;SDS011;37417;48.118;11.734;2022-07-10T04:13:37;5.75;;;5.15;;
51332;SDS011;37417;48.118;11.734;2022-07-10T04:16:22;5.20;;;4.30;;
51332;SDS011;37417;48.118;11.734;2022-07-10T04:19:08;5.25;;;4.75;;
51332;SDS011;37417;48.118;11.734;2022-07-10T04:21:53;6.30;;;4.70;;
51332;SDS011;37417;48.118;11.734;2022-07-10T04:24:39;5.57;;;4.63;;
51332;SDS011;37417;48.118;11.734;2022-07-10T04:27:25;4.53;;;4.13;;
51332;SDS011;37417;48.118;11.734;2022-07-10T04:30:11;5.07;;;4.63;;
51332;SDS011;37417;48.118;11.734;2022-07-10T04:32:57;4.78;;;4.28;;
51332;SDS011;37417;48.118;11.734;2022-07-10T04:35:42;6.05;;;4.53;;
51332;SDS011;37417;48.118;11.734;2022-07-10T04:38:28;6.35;;;4.68;;
51332;SDS011;37417;48.118;11.734;2022-07-10T04:41:14;5.20;;;4.53;;
51332;SDS011;37417;48.118;11.734;2022-07-10T04:44:00;7.80;;;4.45;;
51332;SDS011;37417;48.118;11.734;2022-07-10T04:46:45;4.85;;;4.38;;
51332;SDS011;37417;48.118;11.734;2022-07-10T04:49:31;5.30;;;4.50;;
51332;SDS011;37417;48.118;11.734;2022-07-10T04:52:18;3.72;;;3.33;;
51332;SDS011;37417;48.118;11.734;2022-07-10T04:55:03;4.10;;;3.80;;
51332;SDS011;37417;48.118;11.734;2022-07-10T04:57:49;4.95;;;4.45;;
51332;SDS011;37417;48.118;11.734;2022-07-10T05:00:35;5.13;;;3.80;;
51332;SDS011;37417;48.118;11.734;2022-07-10T05:03:21;7.85;;;4.22;;
51332;SDS011;37417;48.118;11.734;2022-07-10T05:06:06;5.03;;;4.32;;
51332;SDS011;37417;48.118;11.734;2022-07-10T05:08:52;4.75;;;4.10;;
51332;SDS011;37417;48.118;11.734;2022-07-10T05:11:38;5.10;;;4.28;;
51332;SDS011;37417;48.118;11.734;2022-07-10T05:14:24;5.80;;;4.80;;
51332;SDS011;37417;48.118;11.734;2022-07-10T05:17:11;7.80;;;4.40;;
51332;SDS011;37417;48.118;11.734;2022-07-10T05:19:56;5.72;;;5.03;;
51332;SDS011;37417;48.118;11.734;2022-07-10T05:22:42;6.63;;;4.30;;
51332;SDS011;37417;48.118;11.734;2022-07-10T05:25:28;5.82;;;4.78;;
51332;SDS011;37417;48.118;11.734;2022-07-10T05:28:15;5.57;;;4.45;;
51332;SDS011;37417;48.118;11.734;2022-07-10T05:31:01;5.55;;;4.38;;
51332;SDS011;37417;48.118;11.734;2022-07-10T05:33:47;4.90;;;4.45;;
51332;SDS011;37417;48.118;11.734;2022-07-10T05:36:32;5.80;;;4.32;;
51332;SDS011;37417;48.118;11.734;2022-07-10T05:39:18;6.65;;;4.90;;
51332;SDS011;37417;48.118;11.734;2022-07-10T05:42:04;5.63;;;5.13;;
51332;SDS011;37417;48.118;11.734;2022-07-10T05:44:50;4.85;;;4.35;;
51332;SDS011;37417;48.118;11.734;2022-07-10T05:47:35;6.63;;;4.43;;
51332;SDS011;37417;48.118;11.734;2022-07-10T05:50:21;5.15;;;4.32;;
51332;SDS011;37417;48.118;11.734;2022-07-10T05:53:07;7.82;;;5.25;;
51332;SDS011;37417;48.118;11.734;2022-07-10T05:55:52;5.30;;;4.50;;
51332;SDS011;37417;48.118;11.734;2022-07-10T05:58:38;5.10;;;4.60;;
51332;SDS011;37417;48.118;11.734;2022-07-10T06:01:24;4.82;;;4.40;;
51332;SDS011;37417;48.118;11.734;2022-07-10T06:04:11;6.53;;;5.47;;
51332;SDS011;37417;48.118;11.734;2022-07-10T06:06:57;7.88;;;4.95;;
51332;SDS011;37417;48.118;11.734;2022-07-10T06:09:42;5.65;;;5.00;;
51332;SDS011;37417;48.118;11.734;2022-07-10T06:12:28;6.57;;;5.00;;
51332;SDS011;37417;48.118;11.734;2022-07-10T06:15:14;7.25;;;5.15;;
51332;SDS011;37417;48.118;11.734;2022-07-10T06:17:59;5.40;;;4.70;;
51332;SDS011;37417;48.118;11.734;2022-07-10T06:20:45;6.72;;;3.92;;
51332;SDS011;37417;48.118;11.734;2022-07-10T06:23:31;5.40;;;3.72;;
51332;SDS011;37417;48.118;11.734;2022-07-10T06:26:16;7.25;;;3.88;;
51332;SDS011;37417;48.118;11.734;2022-07-10T06:29:02;3.90;;;3.38;;
51332;SDS011;37417;48.118;11.734;2022-07-10T06:31:48;7.05;;;3.72;;
51332;SDS011;37417;48.118;11.734;2022-07-10T06:34:33;4.45;;;3.75;;
51332;SDS011;37417;48.118;11.734;2022-07-10T06:37:19;4.20;;;3.90;;
51332;SDS011;37417;48.118;11.734;2022-07-10T06:40:05;5.47;;;3.80;;
51332;SDS011;37417;48.118;11.734;2022-07-10T06:42:51;6.13;;;3.95;;
51332;SDS011;37417;48.118;11.734;2022-07-10T06:45:37;8.88;;;4.45;;
51332;SDS011;37417;48.118;11.734;2022-07-10T06:48:25;4.90;;;3.97;;
51332;SDS011;37417;48.118;11.734;2022-07-10T06:51:12;3.55;;;3.25;;
51332;SDS011;37417;48.118;11.734;2022-07-10T06:53:58;4.30;;;3.75;;
51332;SDS011;37417;48.118;11.734;2022-07-10T06:56:43;4.00;;;3.60;;
51332;SDS011;37417;48.118;11.734;2022-07-10T06:59:29;3.58;;;3.28;;
51332;SDS011;37417;48.118;11.734;2022-07-10T07:02:15;5.85;;;3.15;;
51332;SDS011;37417;48.118;11.734;2022-07-10T07:05:01;3.78;;;3.40;;
51332;SDS011;37417;48.118;11.734;2022-07-10T07:07:47;3.15;;;2.88;;
51332;SDS011;37417;48.118;11.734;2022-07-10T07:10:33;4.88;;;4.43;;
51332;SDS011;37417;48.118;11.734;2022-07-10T07:13:18;6.30;;;4.03;;
51332;SDS011;37417;48.118;11.734;2022-07-10T07:16:04;4.30;;;3.83;;
51332;SDS011;37417;48.118;11.734;2022-07-10T07:18:53;5.18;;;4.35;;
51332;SDS011;37417;48.118;11.734;2022-07-10T07:21:40;4.05;;;3.75;;
51332;SDS011;37417;48.118;11.734;2022-07-10T07:24:45;5.07;;;4.57;;
51332;SDS011;37417;48.118;11.734;2022-07-10T07:27:31;8.35;;;4.85;;
51332;SDS011;37417;48.118;11.734;2022-07-10T07:30:18;5.85;;;4.10;;
51332;SDS011;37417;48.118;11.734;2022-07-10T07:33:04;22.08;;;10.20;;
51332;SDS011;37417;48.118;11.734;2022-07-10T07:35:49;8.20;;;6.35;;
51332;SDS011;37417;48.118;11.734;2022-07-10T07:38:35;4.63;;;3.65;;
51332;SDS011;37417;48.118;11.734;2022-07-10T07:41:21;4.32;;;3.92;;
51332;SDS011;37417;48.118;11.734;2022-07-10T07:44:08;7.32;;;4.50;;
51332;SDS011;37417;48.118;11.734;2022-07-10T07:46:53;5.45;;;4.65;;
51332;SDS011;37417;48.118;11.734;2022-07-10T07:49:39;9.30;;;4.47;;
51332;SDS011;37417;48.118;11.734;2022-07-10T07:52:24;5.10;;;3.92;;
51332;SDS011;37417;48.118;11.734;2022-07-10T07:55:11;4.40;;;3.92;;
51332;SDS011;37417;48.118;11.734;2022-07-10T07:57:57;7.63;;;4.53;;
51332;SDS011;37417;48.118;11.734;2022-07-10T08:00:43;5.53;;;3.75;;
51332;SDS011;37417;48.118;11.734;2022-07-10T08:03:29;4.18;;;3.78;;
51332;SDS011;37417;48.118;11.734;2022-07-10T08:06:14;6.32;;;3.78;;
51332;SDS011;37417;48.118;11.734;2022-07-10T08:09:00;3.53;;;2.55;;
51332;SDS011;37417;48.118;11.734;2022-07-10T08:11:46;3.53;;;2.60;;
51332;SDS011;37417;48.118;11.734;2022-07-10T08:14:32;3.90;;;2.60;;
51332;SDS011;37417;48.118;11.734;2022-07-10T08:17:17;3.38;;;2.33;;
51332;SDS011;37417;48.118;11.734;2022-07-10T08:20:04;8.70;;;2.60;;
51332;SDS011;37417;48.118;11.734;2022-07-10T08:22:51;3.40;;;2.50;;
51332;SDS011;37417;48.118;11.734;2022-07-10T08:25:39;3.35;;;2.33;;
51332;SDS011;37417;48.118;11.734;2022-07-10T08:28:24;5.20;;;2.70;;
51332;SDS011;37417;48.118;11.734;2022-07-10T08:31:10;4.10;;;2.70;;
51332;SDS011;37417;48.118;11.734;2022-07-10T08:33:55;1.77;;;1.52;;
51332;SDS011;37417;48.118;11.734;2022-07-10T08:36:41;2.88;;;2.30;;
51332;SDS011;37417;48.118;11.734;2022-07-10T08:39:27;4.47;;;2.17;;
51332;SDS011;37417;48.118;11.734;2022-07-10T08:42:12;2.65;;;2.00;;
51332;SDS011;37417;48.118;11.734;2022-07-10T08:45:01;4.70;;;2.15;;
51332;SDS011;37417;48.118;11.734;2022-07-10T08:47:47;2.63;;;1.70;;
51332;SDS011;37417;48.118;11.734;2022-07-10T08:50:33;2.22;;;1.40;;
51332;SDS011;37417;48.118;11.734;2022-07-10T08:53:29;3.55;;;1.92;;
51332;SDS011;37417;48.118;11.734;2022-07-10T08:56:16;2.92;;;1.70;;
51332;SDS011;37417;48.118;11.734;2022-07-10T08:59:02;2.47;;;1.63;;
51332;SDS011;37417;48.118;11.734;2022-07-10T09:01:49;3.45;;;1.25;;
51332;SDS011;37417;48.118;11.734;2022-07-10T09:04:35;1.75;;;1.42;;
51332;SDS011;37417;48.118;11.734;2022-07-10T09:07:21;2.55;;;1.30;;
51332;SDS011;37417;48.118;11.734;2022-07-10T09:10:07;2.38;;;1.17;;
51332;SDS011;37417;48.118;11.734;2022-07-10T09:12:57;1.48;;;1.02;;
51332;SDS011;37417;48.118;11.734;2022-07-10T09:15:49;4.78;;;1.20;;
51332;SDS011;37417;48.118;11.734;2022-07-10T09:18:34;2.45;;;1.20;;
51332;SDS011;37417;48.118;11.734;2022-07-10T09:21:20;2.47;;;1.15;;
51332;SDS011;37417;48.118;11.734;2022-07-10T09:24:07;1.73;;;1.20;;
51332;SDS011;37417;48.118;11.734;2022-07-10T09:27:00;3.75;;;1.50;;
51332;SDS011;37417;48.118;11.734;2022-07-10T09:32:40;2.47;;;1.30;;
51332;SDS011;37417;48.118;11.734;2022-07-10T09:35:25;2.25;;;1.30;;
51332;SDS011;37417;48.118;11.734;2022-07-10T09:41:30;1.30;;;0.90;;
51332;SDS011;37417;48.118;11.734;2022-07-10T09:44:16;6.50;;;1.00;;
51332;SDS011;37417;48.118;11.734;2022-07-10T09:47:03;0.85;;;0.70;;
51332;SDS011;37417;48.118;11.734;2022-07-10T09:49:49;2.83;;;0.93;;
51332;SDS011;37417;48.118;11.734;2022-07-10T09:52:35;5.40;;;1.10;;
51332;SDS011;37417;48.118;11.734;2022-07-10T09:55:23;1.67;;;1.17;;
51332;SDS011;37417;48.118;11.734;2022-07-10T09:58:11;2.40;;;0.90;;
51332;SDS011;37417;48.118;11.734;2022-07-10T10:00:59;1.75;;;1.00;;
51332;SDS011;37417;48.118;11.734;2022-07-10T10:03:47;1.05;;;0.80;;
51332;SDS011;37417;48.118;11.734;2022-07-10T10:06:33;2.05;;;0.90;;
51332;SDS011;37417;48.118;11.734;2022-07-10T10:09:29;1.90;;;1.10;;
51332;SDS011;37417;48.118;11.734;2022-07-10T10:15:31;1.52;;;0.77;;
51332;SDS011;37417;48.118;11.734;2022-07-10T10:18:19;1.48;;;0.63;;
51332;SDS011;37417;48.118;11.734;2022-07-10T10:21:06;1.67;;;1.08;;
51332;SDS011;37417;48.118;11.734;2022-07-10T10:23:53;4.28;;;0.90;;
51332;SDS011;37417;48.118;11.734;2022-07-10T10:26:41;3.40;;;1.08;;
51332;SDS011;37417;48.118;11.734;2022-07-10T10:29:28;2.95;;;1.23;;
51332;SDS011;37417;48.118;11.734;2022-07-10T10:32:14;1.23;;;0.80;;
51332;SDS011;37417;48.118;11.734;2022-07-10T10:35:00;3.40;;;0.73;;
51332;SDS011;37417;48.118;11.734;2022-07-10T10:37:50;1.85;;;1.10;;
51332;SDS011;37417;48.118;11.734;2022-07-10T10:40:36;7.93;;;0.90;;
51332;SDS011;37417;48.118;11.734;2022-07-10T10:43:23;2.05;;;0.70;;
51332;SDS011;37417;48.118;11.734;2022-07-10T10:46:24;1.17;;;0.70;;
51332;SDS011;37417;48.118;11.734;2022-07-10T10:57:42;3.67;;;0.95;;
51332;SDS011;37417;48.118;11.734;2022-07-10T11:00:31;0.70;;;0.57;;
51332;SDS011;37417;48.118;11.734;2022-07-10T11:03:23;2.35;;;0.65;;
51332;SDS011;37417;48.118;11.734;2022-07-10T11:06:09;3.33;;;1.10;;
51332;SDS011;37417;48.118;11.734;2022-07-10T11:08:59;2.28;;;0.55;;
51332;SDS011;37417;48.118;11.734;2022-07-10T11:11:55;1.23;;;0.77;;
51332;SDS011;37417;48.118;11.734;2022-07-10T11:14:55;3.50;;;0.70;;
51332;SDS011;37417;48.118;11.734;2022-07-10T11:17:41;4.75;;;1.05;;
51332;SDS011;37417;48.118;11.734;2022-07-10T11:20:31;1.58;;;0.63;;
51332;SDS011;37417;48.118;11.734;2022-07-10T11:27:02;1.08;;;0.75;;
51332;SDS011;37417;48.118;11.734;2022-07-10T11:29:58;2.10;;;0.80;;
51332;SDS011;37417;48.118;11.734;2022-07-10T11:32:45;1.88;;;0.70;;
51332;SDS011;37417;48.118;11.734;2022-07-10T11:35:31;1.40;;;0.75;;
51332;SDS011;37417;48.118;11.734;2022-07-10T11:38:20;1.40;;;0.60;;
51332;SDS011;37417;48.118;11.734;2022-07-10T11:41:16;1.85;;;0.77;;
51332;SDS011;37417;48.118;11.734;2022-07-10T11:46:58;0.70;;;0.50;;
51332;SDS011;37417;48.118;11.734;2022-07-10T11:49:45;1.65;;;0.60;;
51332;SDS011;37417;48.118;11.734;2022-07-10T11:52:35;1.88;;;0.93;;
51332;SDS011;37417;48.118;11.734;2022-07-10T11:55:22;4.18;;;0.90;;
51332;SDS011;37417;48.118;11.734;2022-07-10T11:58:27;0.88;;;0.57;;
51332;SDS011;37417;48.118;11.734;2022-07-10T12:01:12;2.05;;;0.82;;
51332;SDS011;37417;48.118;11.734;2022-07-10T12:04:01;2.45;;;1.05;;
51332;SDS011;37417;48.118;11.734;2022-07-10T12:06:48;3.47;;;0.68;;
51332;SDS011;37417;48.118;11.734;2022-07-10T12:09:34;1.05;;;0.75;;
51332;SDS011;37417;48.118;11.734;2022-07-10T12:12:23;1.00;;;0.70;;
51332;SDS011;37417;48.118;11.734;2022-07-10T12:15:09;1.83;;;0.75;;
51332;SDS011;37417;48.118;11.734;2022-07-10T12:17:55;2.60;;;0.70;;
51332;SDS011;37417;48.118;11.734;2022-07-10T12:20:41;2.58;;;0.52;;
51332;SDS011;37417;48.118;11.734;2022-07-10T12:23:30;4.20;;;1.23;;
51332;SDS011;37417;48.118;11.734;2022-07-10T12:26:16;2.03;;;1.08;;
51332;SDS011;37417;48.118;11.734;2022-07-10T12:29:02;3.15;;;1.10;;
51332;SDS011;37417;48.118;11.734;2022-07-10T12:31:50;2.05;;;0.68;;
51332;SDS011;37417;48.118;11.734;2022-07-10T12:34:39;2.88;;;1.05;;
51332;SDS011;37417;48.118;11.734;2022-07-10T12:37:28;1.90;;;0.85;;
51332;SDS011;37417;48.118;11.734;2022-07-10T12:40:29;1.70;;;0.70;;
51332;SDS011;37417;48.118;11.734;2022-07-10T12:43:25;3.13;;;0.73;;
51332;SDS011;37417;48.118;11.734;2022-07-10T12:51:52;0.85;;;0.57;;
51332;SDS011;37417;48.118;11.734;2022-07-10T12:54:37;1.45;;;0.90;;
51332;SDS011;37417;48.118;11.734;2022-07-10T12:57:23;1.98;;;0.60;;
51332;SDS011;37417;48.118;11.734;2022-07-10T13:00:09;1.92;;;0.60;;
51332;SDS011;37417;48.118;11.734;2022-07-10T13:05:44;1.73;;;0.65;;
51332;SDS011;37417;48.118;11.734;2022-07-10T13:08:43;1.27;;;0.60;;
51332;SDS011;37417;48.118;11.734;2022-07-10T13:11:30;0.82;;;0.60;;
51332;SDS011;37417;48.118;11.734;2022-07-10T13:14:15;1.13;;;0.55;;
51332;SDS011;37417;48.118;11.734;2022-07-10T13:17:01;4.15;;;0.57;;
51332;SDS011;37417;48.118;11.734;2022-07-10T13:19:47;2.38;;;0.63;;
51332;SDS011;37417;48.118;11.734;2022-07-10T13:22:33;1.75;;;0.55;;
51332;SDS011;37417;48.118;11.734;2022-07-10T13:25:18;3.95;;;0.65;;
51332;SDS011;37417;48.118;11.734;2022-07-10T13:28:05;1.33;;;0.45;;
51332;SDS011;37417;48.118;11.734;2022-07-10T13:30:51;1.25;;;0.38;;
51332;SDS011;37417;48.118;11.734;2022-07-10T13:33:36;3.30;;;0.52;;
51332;SDS011;37417;48.118;11.734;2022-07-10T13:36:22;2.78;;;0.60;;
51332;SDS011;37417;48.118;11.734;2022-07-10T13:39:08;2.95;;;0.40;;
51332;SDS011;37417;48.118;11.734;2022-07-10T13:41:54;2.70;;;0.52;;
51332;SDS011;37417;48.118;11.734;2022-07-10T13:44:40;2.05;;;0.40;;
51332;SDS011;37417;48.118;11.734;2022-07-10T13:47:25;2.30;;;1.00;;
51332;SDS011;37417;48.118;11.734;2022-07-10T13:50:11;0.75;;;0.30;;
51332;SDS011;37417;48.118;11.734;2022-07-10T13:52:57;1.60;;;0.80;;
51332;SDS011;37417;48.118;11.734;2022-07-10T13:55:43;2.33;;;0.57;;
51332;SDS011;37417;48.118;11.734;2022-07-10T13:58:30;4.65;;;0.68;;
51332;SDS011;37417;48.118;11.734;2022-07-10T14:01:16;0.70;;;0.38;;
51332;SDS011;37417;48.118;11.734;2022-07-10T14:04:02;1.63;;;0.30;;
51332;SDS011;37417;48.118;11.734;2022-07-10T14:06:48;4.45;;;0.70;;
51332;SDS011;37417;48.118;11.734;2022-07-10T14:09:33;1.77;;;0.43;;
51332;SDS011;37417;48.118;11.734;2022-07-10T14:12:19;3.40;;;0.85;;
51332;SDS011;37417;48.118;11.734;2022-07-10T14:15:05;2.78;;;0.68;;
51332;SDS011;37417;48.118;11.734;2022-07-10T14:17:51;2.45;;;0.60;;
51332;SDS011;37417;48.118;11.734;2022-07-10T14:20:37;3.83;;;0.55;;
51332;SDS011;37417;48.118;11.734;2022-07-10T14:23:42;1.50;;;0.50;;
51332;SDS011;37417;48.118;11.734;2022-07-10T14:26:29;2.20;;;0.70;;
51332;SDS011;37417;48.118;11.734;2022-07-10T14:29:14;0.77;;;0.50;;
51332;SDS011;37417;48.118;11.734;2022-07-10T14:32:00;2.67;;;0.50;;
51332;SDS011;37417;48.118;11.734;2022-07-10T14:34:46;4.85;;;0.60;;
51332;SDS011;37417;48.118;11.734;2022-07-10T14:37:31;2.72;;;0.55;;
51332;SDS011;37417;48.118;11.734;2022-07-10T14:40:17;6.63;;;0.40;;
51332;SDS011;37417;48.118;11.734;2022-07-10T14:43:03;1.65;;;0.52;;
51332;SDS011;37417;48.118;11.734;2022-07-10T14:45:48;5.22;;;0.32;;
51332;SDS011;37417;48.118;11.734;2022-07-10T14:48:34;2.63;;;0.52;;
51332;SDS011;37417;48.118;11.734;2022-07-10T14:51:21;3.30;;;0.52;;
51332;SDS011;37417;48.118;11.734;2022-07-10T14:54:06;0.57;;;0.50;;
51332;SDS011;37417;48.118;11.734;2022-07-10T14:56:53;0.88;;;0.63;;
51332;SDS011;37417;48.118;11.734;2022-07-10T14:59:38;0.82;;;0.60;;
51332;SDS011;37417;48.118;11.734;2022-07-10T15:02:24;1.70;;;0.40;;
51332;SDS011;37417;48.118;11.734;2022-07-10T15:05:10;2.60;;;0.68;;
51332;SDS011;37417;48.118;11.734;2022-07-10T15:07:56;2.05;;;0.68;;
51332;SDS011;37417;48.118;11.734;2022-07-10T15:10:41;4.60;;;0.80;;
51332;SDS011;37417;48.118;11.734;2022-07-10T15:13:31;3.50;;;0.65;;
51332;SDS011;37417;48.118;11.734;2022-07-10T15:16:17;4.75;;;0.95;;
51332;SDS011;37417;48.118;11.734;2022-07-10T15:19:03;2.17;;;0.47;;
51332;SDS011;37417;48.118;11.734;2022-07-10T15:21:48;1.83;;;0.70;;
51332;SDS011;37417;48.118;11.734;2022-07-10T15:24:34;1.70;;;0.60;;
51332;SDS011;37417;48.118;11.734;2022-07-10T15:27:20;5.00;;;0.30;;
51332;SDS011;37417;48.118;11.734;2022-07-10T15:30:06;2.67;;;0.43;;
51332;SDS011;37417;48.118;11.734;2022-07-10T15:32:52;2.95;;;0.73;;
51332;SDS011;37417;48.118;11.734;2022-07-10T15:35:39;1.95;;;0.47;;
51332;SDS011;37417;48.118;11.734;2022-07-10T15:38:25;2.90;;;0.47;;
51332;SDS011;37417;48.118;11.734;2022-07-10T15:41:11;0.30;;;0.17;;
51332;SDS011;37417;48.118;11.734;2022-07-10T15:43:57;1.63;;;0.40;;
51332;SDS011;37417;48.118;11.734;2022-07-10T15:46:43;2.00;;;0.30;;
51332;SDS011;37417;48.118;11.734;2022-07-10T15:49:28;1.10;;;0.40;;
51332;SDS011;37417;48.118;11.734;2022-07-10T15:52:14;5.90;;;0.73;;
51332;SDS011;37417;48.118;11.734;2022-07-10T15:55:00;3.58;;;0.80;;
51332;SDS011;37417;48.118;11.734;2022-07-10T15:57:45;0.73;;;0.43;;
51332;SDS011;37417;48.118;11.734;2022-07-10T16:00:31;1.83;;;0.63;;
51332;SDS011;37417;48.118;11.734;2022-07-10T16:03:17;0.30;;;0.25;;
51332;SDS011;37417;48.118;11.734;2022-07-10T16:06:05;1.83;;;0.22;;
51332;SDS011;37417;48.118;11.734;2022-07-10T16:08:51;0.57;;;0.38;;
51332;SDS011;37417;48.118;11.734;2022-07-10T16:11:36;1.08;;;0.35;;
51332;SDS011;37417;48.118;11.734;2022-07-10T16:14:22;1.65;;;0.10;;
51332;SDS011;37417;48.118;11.734;2022-07-10T16:17:08;3.63;;;0.32;;
51332;SDS011;37417;48.118;11.734;2022-07-10T16:19:54;2.08;;;0.50;;
51332;SDS011;37417;48.118;11.734;2022-07-10T16:22:39;1.10;;;0.25;;
51332;SDS011;37417;48.118;11.734;2022-07-10T16:25:25;1.45;;;0.52;;
51332;SDS011;37417;48.118;11.734;2022-07-10T16:28:29;0.10;;;0.10;;
51332;SDS011;37417;48.118;11.734;2022-07-10T16:31:16;2.00;;;0.47;;
51332;SDS011;37417;48.118;11.734;2022-07-10T16:34:02;2.20;;;0.60;;
51332;SDS011;37417;48.118;11.734;2022-07-10T16:36:48;6.63;;;1.08;;
51332;SDS011;37417;48.118;11.734;2022-07-10T16:39:35;1.48;;;0.35;;
51332;SDS011;37417;48.118;11.734;2022-07-10T16:42:20;0.38;;;0.20;;
51332;SDS011;37417;48.118;11.734;2022-07-10T16:45:06;4.18;;;2.03;;
51332;SDS011;37417;48.118;11.734;2022-07-10T16:47:52;1.15;;;0.63;;
51332;SDS011;37417;48.118;11.734;2022-07-10T16:50:40;0.65;;;0.22;;
51332;SDS011;37417;48.118;11.734;2022-07-10T16:53:26;1.20;;;0.25;;
51332;SDS011;37417;48.118;11.734;2022-07-10T16:56:11;1.75;;;0.40;;
51332;SDS011;37417;48.118;11.734;2022-07-10T16:58:57;2.30;;;0.30;;
51332;SDS011;37417;48.118;11.734;2022-07-10T17:01:43;0.57;;;0.25;;